Terminal Aerodrome Forecast
Issued by NWS

Home | Current Version | Previous Version | Graphics & Text | Print | Product List | Glossary On
Versions: 1 2 3 4 5 6 7 8 9 10 11 12 13 14 15 16 17 18 19 20 21 22 23 24 25 26 27 28 29
600
FTUS43 KABR 240901 AAB
TAFATY
TAF AMD
KATY 240901Z 2409/2506 VRB04KT P6SM OVC020
     FM241400 VRB04KT P6SM SCT250
     FM250000 15009KT P6SM FEW250=

USA.gov is the U.S. government's official web portal to all federal, state and local government web resources and services.